Weather at Pakhokku Airport

Public forecast

Using degrees Celsius for public forecast. Weather courtesy of forecast.io.

Closest aviation weather report (METAR) to Pakhokku Airport

Closest report is Mandalay International Airport, 51.6 nm (95.6 km) ENE. Retrieved 2020/09/19 07:30 UTC (33 minutes ago):

VYMD 190730Z 32004KT 7000 BKN020 FEW025CB 39/23 Q0998

Closest aviation forecast (TAF) to Pakhokku Airport

Closest forecast is Mandalay International Airport, 51.6 nm (95.6 km) ENE. Retrieved 2020/09/19 06:00 UTC (2 hours ago):

TAF VYMD 190500Z 1906/2006 32007KT 7000 BKN020 FEW025CB TEMPO 1906/1912 34008KT 5000 -TSRA BKN018 FEW025CB BKN100